Time;durP1;ratioP1;P1;durP2;ratioP2;P2;SDS_P1;SDS_P2;PMS_P1;PMS_P2;Temp;Humidity;BMP_temperature;BMP_pressure;BME280_temperature;BME280_humidity;BME280_pressure;Samples;Min_cycle;Max_cycle;Signal;HPM_P1;HPM_P2
2021/06/03 00:01:23;;;;;;;;;18.75;18.75;;;;;22.44;63.23;101364.03;4974322;28;45263;-90
2021/06/03 00:03:48;;;;;;;;;16.00;14.00;;;;;22.35;63.32;101354.09;4976823;28;45353;-88
2021/06/03 00:06:13;;;;;;;;;16.50;15.75;;;;;22.36;63.33;101359.31;4974805;28;46136;-91
2021/06/03 00:08:39;;;;;;;;;20.25;18.50;;;;;22.45;63.03;101370.22;4976988;28;45499;-90
2021/06/03 00:11:10;;;;;;;;;21.75;18.25;;;;;22.48;63.40;101372.66;4976237;28;45432;-90
2021/06/03 00:13:37;;;;;;;;;19.75;16.50;;;;;22.04;63.10;101308.41;4976864;28;45222;-89
2021/06/03 00:16:07;;;;;;;;;20.25;18.75;;;;;22.47;63.00;101382.53;4973742;28;45649;-91
2021/06/03 00:18:32;;;;;;;;;21.00;18.00;;;;;22.37;62.85;101363.69;4973026;28;45761;-89
2021/06/03 00:20:58;;;;;;;;;16.75;16.25;;;;;22.45;63.22;101380.94;4975034;28;45883;-89
2021/06/03 00:23:24;;;;;;;;;20.75;17.25;;;;;22.47;62.93;101382.53;4977613;28;45331;-89
2021/06/03 00:25:50;;;;;;;;;20.00;16.25;;;;;22.47;63.51;101379.00;4979030;28;45352;-90
2021/06/03 00:28:16;;;;;;;;;20.50;17.50;;;;;22.49;63.61;101393.94;4973976;28;45472;-91
2021/06/03 00:30:41;;;;;;;;;16.00;15.75;;;;;22.41;62.60;101375.00;4973689;28;45490;-90
2021/06/03 00:33:07;;;;;;;;;21.75;15.75;;;;;22.46;63.37;101385.34;4975104;28;45472;-89
2021/06/03 00:35:32;;;;;;;;;17.50;16.50;;;;;22.38;63.24;101381.44;4978143;28;45266;-90
2021/06/03 00:37:58;;;;;;;;;19.00;15.25;;;;;22.36;62.90;101385.25;4977531;28;45705;-90
2021/06/03 00:40:24;;;;;;;;;20.25;16.25;;;;;22.40;63.62;101398.25;4978905;28;45551;-86
2021/06/03 00:42:49;;;;;;;;;18.00;15.00;;;;;22.32;63.34;101387.31;4977315;28;45581;-89
2021/06/03 00:45:37;;;;;;;;;17.00;17.00;;;;;22.31;63.55;101395.47;4977718;28;45720;-91
2021/06/03 00:48:05;;;;;;;;;22.25;18.00;;;;;22.29;63.45;101402.78;4977970;28;45523;-90
2021/06/03 00:50:35;;;;;;;;;21.00;17.25;;;;;22.17;63.30;101385.88;4978103;28;45432;-83
2021/06/03 00:53:03;;;;;;;;;19.75;18.75;;;;;22.27;64.09;101407.41;4975588;28;45488;-89
2021/06/03 00:55:28;;;;;;;;;19.25;17.00;;;;;22.20;63.63;101399.03;4978053;28;45433;-90
2021/06/03 00:57:55;;;;;;;;;19.00;16.75;;;;;22.21;63.78;101411.44;4973304;28;45368;-89
2021/06/03 01:00:21;;;;;;;;;17.50;14.75;;;;;22.18;63.99;101409.00;4978422;28;45587;-88
2021/06/03 01:02:46;;;;;;;;;21.00;18.00;;;;;22.08;64.40;101400.88;4977948;28;45659;-90
2021/06/03 01:05:19;;;;;;;;;20.00;17.50;;;;;22.11;64.29;101405.13;4970826;28;45322;-89
2021/06/03 01:07:44;;;;;;;;;17.75;15.25;;;;;22.10;63.79;101409.63;4977186;28;45381;-90
2021/06/03 01:10:20;;;;;;;;;20.75;17.00;;;;;22.07;64.50;101409.84;4976028;28;45351;-90
2021/06/03 01:12:45;;;;;;;;;16.25;16.25;;;;;22.09;64.31;101417.78;4973188;28;45499;-90
2021/06/03 01:15:12;;;;;;;;;18.00;15.75;;;;;22.05;64.52;101419.84;4972794;28;45899;-80
2021/06/03 01:17:40;;;;;;;;;17.75;16.75;;;;;21.92;64.15;101395.00;4977155;28;45586;-91
2021/06/03 01:20:07;;;;;;;;;15.50;15.00;;;;;22.05;64.31;101417.16;4977965;28;45502;-89
2021/06/03 01:22:48;;;;;;;;;18.75;16.25;;;;;22.10;64.04;101431.06;4974616;28;45584;-89
2021/06/03 01:25:14;;;;;;;;;18.50;16.75;;;;;22.07;64.43;101417.03;4975815;28;46282;-89
2021/06/03 01:27:40;;;;;;;;;18.00;18.00;;;;;22.12;64.14;101429.09;4976336;28;45770;-89
2021/06/03 01:30:26;;;;;;;;;22.50;16.75;;;;;22.11;64.14;101430.06;4977465;28;45523;-90
2021/06/03 01:32:56;;;;;;;;;17.75;15.25;;;;;22.04;64.43;101423.50;4977070;28;45353;-91
2021/06/03 01:35:27;;;;;;;;;17.25;15.25;;;;;22.10;64.54;101436.41;4977319;28;46379;-89
2021/06/03 01:37:53;;;;;;;;;19.75;16.75;;;;;22.10;64.25;101424.81;4974044;28;45699;-86
2021/06/03 01:40:20;;;;;;;;;19.25;17.25;;;;;22.06;64.20;101434.91;4976511;28;45535;-90
2021/06/03 01:42:47;;;;;;;;;17.00;14.50;;;;;22.02;64.66;101433.44;4972732;28;45225;-89
2021/06/03 01:45:15;;;;;;;;;17.75;17.00;;;;;21.98;64.51;101434.69;4976471;28;46222;-86
2021/06/03 01:47:41;;;;;;;;;20.50;17.00;;;;;21.92;64.46;101432.47;4977687;28;45903;-90
2021/06/03 01:50:09;;;;;;;;;23.75;20.25;;;;;21.88;65.09;101437.25;4977544;28;45412;-90
2021/06/03 01:52:35;;;;;;;;;20.75;18.50;;;;;21.85;64.69;101447.34;4976889;28;45509;-89
2021/06/03 01:55:01;;;;;;;;;23.25;19.25;;;;;21.81;64.79;101451.22;4976364;28;45546;-89
2021/06/03 01:57:27;;;;;;;;;17.75;16.00;;;;;21.65;65.41;101423.97;4976486;28;45306;-90
2021/06/03 01:59:52;;;;;;;;;17.50;16.75;;;;;21.72;65.00;101446.63;4973638;28;45602;-89
2021/06/03 02:02:18;;;;;;;;;21.00;18.25;;;;;21.68;65.79;101450.50;4975676;28;45172;-90
2021/06/03 02:04:43;;;;;;;;;15.50;14.75;;;;;21.67;65.27;101456.81;4977390;28;45257;-89
2021/06/03 02:07:08;;;;;;;;;25.25;21.00;;;;;21.56;65.41;101446.94;4976390;28;45537;-87
2021/06/03 02:09:34;;;;;;;;;19.25;17.75;;;;;21.63;65.37;101457.06;4975472;28;45704;-91
2021/06/03 02:11:59;;;;;;;;;20.75;17.50;;;;;21.61;66.01;101464.34;4974493;28;45375;-89
2021/06/03 02:14:31;;;;;;;;;17.75;17.00;;;;;21.58;65.82;101461.91;4976111;28;45313;-90
2021/06/03 02:17:08;;;;;;;;;18.00;17.00;;;;;21.53;65.79;101455.22;4975001;28;45338;-89
2021/06/03 02:19:53;;;;;;;;;23.00;19.00;;;;;21.56;65.82;101463.88;4972194;28;45467;-89
2021/06/03 02:22:21;;;;;;;;;19.50;17.50;;;;;21.57;65.79;101462.88;4972254;28;45614;-90
2021/06/03 02:24:48;;;;;;;;;17.00;17.00;;;;;21.52;66.20;101450.84;4975451;28;45474;-90
2021/06/03 02:27:16;;;;;;;;;19.50;18.25;;;;;21.49;65.87;101449.25;4976889;28;45802;-90
2021/06/03 02:29:42;;;;;;;;;20.00;17.00;;;;;21.53;65.84;101463.25;4976453;28;45543;-89
2021/06/03 02:32:08;;;;;;;;;21.75;18.25;;;;;21.49;66.11;101449.25;4976307;28;45449;-88
2021/06/03 02:34:33;;;;;;;;;16.25;15.25;;;;;21.47;66.03;101455.69;4976320;28;45452;-89
2021/06/03 02:36:59;;;;;;;;;20.00;15.75;;;;;21.25;65.91;101429.72;4975814;28;45343;-89
2021/06/03 02:39:24;;;;;;;;;21.25;18.00;;;;;21.39;66.24;101450.06;4976153;28;46378;-90
2021/06/03 02:41:50;;;;;;;;;19.00;18.75;;;;;21.35;67.01;101450.31;4974227;28;45352;-89
2021/06/03 02:44:15;;;;;;;;;18.00;17.75;;;;;21.40;66.28;101457.13;4974521;28;45625;-89
2021/06/03 02:46:41;;;;;;;;;21.25;19.50;;;;;21.39;67.00;101460.78;4973039;28;45479;-90
2021/06/03 02:49:06;;;;;;;;;27.00;18.75;;;;;21.18;66.61;101425.81;4972294;28;45434;-90
2021/06/03 02:51:31;;;;;;;;;21.75;21.00;;;;;21.38;67.04;101464.41;4975262;28;45586;-89
2021/06/03 02:53:57;;;;;;;;;22.25;20.50;;;;;21.40;66.81;101462.47;4976097;28;46171;-89
2021/06/03 02:56:22;;;;;;;;;22.25;18.25;;;;;21.38;66.84;101459.91;4975715;28;47685;-89
2021/06/03 02:58:48;;;;;;;;;24.50;20.25;;;;;21.40;67.01;101460.63;4976654;28;45593;-89
2021/06/03 03:01:13;;;;;;;;;18.50;18.50;;;;;21.45;66.61;101468.31;4975987;28;45426;-89
2021/06/03 03:03:39;;;;;;;;;21.75;20.25;;;;;21.46;66.90;101470.88;4975967;28;46082;-88
2021/06/03 03:06:05;;;;;;;;;21.00;20.00;;;;;21.48;66.57;101470.75;4975272;28;45388;-90
2021/06/03 03:08:31;;;;;;;;;22.00;19.00;;;;;21.44;66.82;101467.47;4975880;28;45720;-89
2021/06/03 03:10:58;;;;;;;;;27.75;21.25;;;;;21.50;66.77;101476.84;4977066;28;45377;-90
2021/06/03 03:13:23;;;;;;;;;18.75;17.75;;;;;21.45;66.83;101471.84;4975055;28;46373;-90
2021/06/03 03:15:49;;;;;;;;;26.00;20.25;;;;;21.47;66.67;101479.75;4975550;28;45599;-88
2021/06/03 03:18:15;;;;;;;;;20.75;17.50;;;;;21.41;66.42;101483.75;4971857;28;45468;-91
2021/06/03 03:20:41;;;;;;;;;17.75;17.25;;;;;21.44;66.33;101482.66;4972998;28;45440;-91
2021/06/03 03:23:09;;;;;;;;;24.50;22.50;;;;;21.42;66.51;101487.28;4973724;28;45997;-90
2021/06/03 03:25:35;;;;;;;;;20.50;20.00;;;;;21.37;66.79;101484.97;4975459;28;46098;-90
2021/06/03 03:28:03;;;;;;;;;19.75;18.50;;;;;21.38;66.68;101486.66;4974271;28;45296;-89
2021/06/03 03:30:30;;;;;;;;;19.00;17.25;;;;;21.37;67.01;101487.63;4975112;28;45385;-88
2021/06/03 03:32:56;;;;;;;;;21.25;20.00;;;;;21.30;67.00;101495.28;4975254;28;46308;-89
2021/06/03 03:35:22;;;;;;;;;21.75;18.75;;;;;21.31;66.84;101496.13;4974448;28;45344;-90
2021/06/03 03:37:48;;;;;;;;;18.00;17.00;;;;;21.31;66.59;101499.66;4992778;28;45479;-91
2021/06/03 03:40:17;;;;;;;;;20.75;18.50;;;;;21.30;66.69;101502.44;4972176;28;45514;-91
2021/06/03 03:42:43;;;;;;;;;17.25;15.75;;;;;21.32;66.74;101514.72;4974971;28;45556;-91
2021/06/03 03:45:11;;;;;;;;;23.75;18.00;;;;;21.33;66.66;101511.06;4975513;28;45461;-87
2021/06/03 03:47:37;;;;;;;;;25.75;18.25;;;;;21.33;67.19;101515.56;4974772;28;45446;-91
2021/06/03 03:50:08;;;;;;;;;18.25;16.75;;;;;21.35;66.76;101526.97;4976244;28;45300;-89
2021/06/03 03:52:33;;;;;;;;;25.25;19.75;;;;;21.32;66.96;101520.06;4973006;28;46242;-90
2021/06/03 03:55:00;;;;;;;;;19.25;15.75;;;;;21.34;66.42;101523.47;4975310;28;45772;-90
2021/06/03 03:57:26;;;;;;;;;22.25;18.50;;;;;21.32;67.18;101525.41;4974957;28;45427;-90
2021/06/03 03:59:51;;;;;;;;;21.25;18.25;;;;;21.39;66.77;101524.94;4973421;28;45492;-90
2021/06/03 04:02:17;;;;;;;;;20.75;17.00;;;;;21.40;66.78;101538.19;4974016;28;45432;-90
2021/06/03 04:04:42;;;;;;;;;24.75;21.75;;;;;21.43;66.79;101531.78;4971426;28;45452;-91
2021/06/03 04:07:08;;;;;;;;;22.25;19.75;;;;;21.46;67.06;101536.91;4975877;28;45403;-90
2021/06/03 04:09:33;;;;;;;;;26.00;22.50;;;;;21.47;66.49;101542.13;4975201;28;45471;-91
2021/06/03 04:11:59;;;;;;;;;20.00;19.50;;;;;21.41;67.20;101534.56;4973374;28;45383;-90
2021/06/03 04:14:24;;;;;;;;;23.00;21.25;;;;;21.47;67.15;101538.59;4972849;28;45352;-85
2021/06/03 04:16:49;;;;;;;;;20.25;16.25;;;;;21.46;67.49;101547.59;4976073;28;45534;-90
2021/06/03 04:19:15;;;;;;;;;20.50;18.00;;;;;21.48;67.15;101559.00;4975618;28;45463;-89
2021/06/03 04:21:40;;;;;;;;;23.75;22.50;;;;;21.46;67.09;101553.78;4975506;28;45889;-90
2021/06/03 04:24:06;;;;;;;;;24.00;19.50;;;;;21.49;67.18;101558.88;4974511;28;45519;-90
2021/06/03 04:26:34;;;;;;;;;19.75;18.25;;;;;21.51;67.14;101562.31;4975549;28;45282;-90
2021/06/03 04:28:59;;;;;;;;;24.50;23.50;;;;;21.54;66.61;101554.03;4975474;28;45325;-87
2021/06/03 04:31:25;;;;;;;;;25.50;21.25;;;;;21.54;67.14;101556.72;4975542;28;46217;-90
2021/06/03 04:33:50;;;;;;;;;24.00;20.75;;;;;21.54;67.28;101555.88;4972409;28;45556;-89
2021/06/03 04:36:15;;;;;;;;;20.75;18.75;;;;;21.56;66.77;101552.13;4977816;28;45574;-89
2021/06/03 04:38:41;;;;;;;;;23.00;21.00;;;;;21.56;66.50;101559.28;4978555;28;45490;-89
2021/06/03 04:41:07;;;;;;;;;22.75;19.75;;;;;21.52;67.14;101561.34;4978513;28;45364;-90
2021/06/03 04:43:32;;;;;;;;;20.00;17.75;;;;;21.59;67.08;101561.72;4978117;28;45621;-90
2021/06/03 04:45:57;;;;;;;;;24.25;20.00;;;;;21.61;66.58;101557.09;4976963;28;45577;-90
2021/06/03 04:48:23;;;;;;;;;22.75;18.75;;;;;21.63;66.49;101566.72;4975752;28;45554;-89
2021/06/03 04:50:48;;;;;;;;;28.75;20.50;;;;;21.66;66.58;101564.78;4975365;28;46336;-90
2021/06/03 04:53:17;;;;;;;;;25.25;21.75;;;;;21.68;66.79;101562.84;4977769;28;45602;-90
2021/06/03 04:55:43;;;;;;;;;24.00;18.75;;;;;21.65;66.81;101565.75;4978238;28;45474;-90
2021/06/03 04:58:08;;;;;;;;;19.50;17.75;;;;;21.63;66.45;101553.34;4977889;28;45455;-90
2021/06/03 05:00:37;;;;;;;;;21.50;20.75;;;;;21.70;66.26;101558.22;4977636;28;46963;-91
2021/06/03 05:03:03;;;;;;;;;20.75;19.50;;;;;21.72;66.30;101562.50;4977334;28;45549;-88
2021/06/03 05:05:29;;;;;;;;;17.25;16.75;;;;;21.75;66.83;101558.72;4978274;28;45394;-91
2021/06/03 05:07:55;;;;;;;;;25.00;18.00;;;;;21.78;66.65;101561.19;4978413;28;45330;-90
2021/06/03 05:10:22;;;;;;;;;22.00;18.25;;;;;21.74;66.48;101551.69;4973719;28;46275;-90
2021/06/03 05:12:48;;;;;;;;;17.00;17.00;;;;;21.80;66.62;101556.53;4969370;28;45504;-91
2021/06/03 05:15:15;;;;;;;;;21.00;18.75;;;;;21.82;66.37;101563.50;4977128;28;45229;-90
2021/06/03 05:17:41;;;;;;;;;23.75;20.50;;;;;21.82;66.83;101551.91;4977512;28;45418;-91
2021/06/03 05:20:12;;;;;;;;;24.25;22.25;;;;;21.83;66.52;101569.69;4978336;28;46317;-89
2021/06/03 05:22:38;;;;;;;;;20.50;18.00;;;;;21.87;66.42;101572.03;4974662;28;45988;-90
2021/06/03 05:25:10;;;;;;;;;22.50;20.00;;;;;21.88;66.17;101565.69;4977484;28;45446;-90
2021/06/03 05:27:35;;;;;;;;;20.50;18.25;;;;;21.92;66.67;101565.44;4974116;28;45372;-91
2021/06/03 05:30:01;;;;;;;;;22.25;20.00;;;;;21.93;66.14;101572.53;4970512;28;46169;-90
2021/06/03 05:32:26;;;;;;;;;20.75;18.25;;;;;21.99;66.50;101580.06;4976664;28;45459;-90
2021/06/03 05:34:51;;;;;;;;;23.50;18.25;;;;;22.03;65.95;101578.84;4974165;28;45421;-87
2021/06/03 05:37:17;;;;;;;;;22.25;17.75;;;;;22.02;66.20;101569.97;4974981;28;45233;-90
2021/06/03 05:39:42;;;;;;;;;24.00;22.50;;;;;22.13;65.92;101575.38;4975146;28;45225;-92
2021/06/03 05:42:08;;;;;;;;;24.00;19.25;;;;;22.03;65.79;101554.75;4976770;28;45424;-87
2021/06/03 05:44:33;;;;;;;;;19.00;19.00;;;;;22.19;66.13;101574.06;4977545;28;45217;-91
2021/06/03 05:46:59;;;;;;;;;24.50;20.75;;;;;22.23;66.14;101571.97;4973833;28;45340;-90
2021/06/03 05:49:26;;;;;;;;;21.25;19.75;;;;;22.31;65.86;101580.25;4977128;28;46256;-90
2021/06/03 05:51:52;;;;;;;;;22.50;21.50;;;;;22.35;65.94;101587.09;4975734;28;45937;-86
2021/06/03 05:54:17;;;;;;;;;25.75;18.75;;;;;22.38;65.50;101582.31;4973251;28;45329;-89
2021/06/03 05:56:43;;;;;;;;;22.75;18.50;;;;;22.47;65.34;101585.25;4977079;28;45389;-91
2021/06/03 05:59:08;;;;;;;;;25.50;24.00;;;;;22.55;65.26;101583.66;4976923;28;50543;-84
2021/06/03 06:01:34;;;;;;;;;20.75;19.50;;;;;22.67;65.43;101589.88;4972371;28;45570;-87
2021/06/03 06:06:31;;;;;;;;;25.50;22.25;;;;;22.87;64.62;101590.94;4972491;28;45377;-81
2021/06/03 06:09:00;;;;;;;;;21.00;20.25;;;;;23.06;64.44;101584.94;4975732;28;45495;-86
2021/06/03 06:11:31;;;;;;;;;23.50;21.25;;;;;23.20;63.66;101591.84;4977007;28;45887;-88
2021/06/03 06:13:57;;;;;;;;;20.25;20.00;;;;;23.27;63.50;101583.16;4972894;28;45360;-86
2021/06/03 06:16:23;;;;;;;;;22.25;21.25;;;;;23.50;63.03;101594.66;4975949;28;45691;-83
2021/06/03 06:18:48;;;;;;;;;21.75;20.00;;;;;23.62;62.70;101587.41;4975579;28;46175;-86
2021/06/03 06:21:19;;;;;;;;;27.25;21.75;;;;;23.90;62.75;101607.41;4973646;28;45424;-84
2021/06/03 06:23:46;;;;;;;;;23.25;17.75;;;;;24.25;61.68;101603.53;4972663;28;45492;-85
2021/06/03 06:26:12;;;;;;;;;28.00;23.00;;;;;24.61;60.84;101594.09;4975059;28;45535;-85
2021/06/03 06:28:38;;;;;;;;;25.50;20.25;;;;;24.93;60.58;101618.09;4972784;28;45469;-86
2021/06/03 06:31:06;;;;;;;;;23.25;22.00;;;;;25.25;60.17;101610.69;4970597;28;45487;-90
2021/06/03 06:33:33;;;;;;;;;25.00;21.25;;;;;25.50;59.12;101611.97;4970773;28;45467;-84
2021/06/03 06:35:59;;;;;;;;;24.25;20.25;;;;;25.67;58.55;101617.63;4972577;28;45462;-84
2021/06/03 06:38:24;;;;;;;;;24.75;23.50;;;;;25.67;58.31;101618.47;4975600;28;46029;-84
2021/06/03 06:40:51;;;;;;;;;24.50;23.25;;;;;25.60;58.27;101621.91;4971400;28;45502;-86
2021/06/03 06:43:17;;;;;;;;;24.25;22.00;;;;;25.56;58.11;101618.63;4971829;28;45554;-84
2021/06/03 06:45:44;;;;;;;;;23.00;22.50;;;;;25.62;58.39;101618.06;4972393;28;45796;-84
2021/06/03 06:48:11;;;;;;;;;25.50;24.25;;;;;25.74;57.56;101613.41;4970721;28;46360;-87
2021/06/03 06:50:38;;;;;;;;;24.00;19.50;;;;;25.90;57.69;101612.84;4975094;28;45770;-85
2021/06/03 06:53:05;;;;;;;;;24.50;22.25;;;;;26.07;56.85;101609.41;4975358;28;45461;-85
2021/06/03 06:55:32;;;;;;;;;27.75;26.50;;;;;26.36;56.59;101621.91;4986175;28;45463;-85
2021/06/03 06:57:58;;;;;;;;;25.50;20.25;;;;;26.52;56.22;101614.13;4975280;28;45986;-85
2021/06/03 07:00:26;;;;;;;;;23.75;23.00;;;;;26.66;55.47;101618.16;4971090;28;45804;-85
2021/06/03 07:02:52;;;;;;;;;23.75;20.25;;;;;26.65;55.68;101613.75;4970541;28;45705;-89
2021/06/03 07:05:19;;;;;;;;;29.25;20.75;;;;;26.53;54.76;101608.56;4973660;28;45515;-83
2021/06/03 07:07:44;;;;;;;;;25.75;21.75;;;;;26.45;55.42;101613.84;4971625;28;45477;-83
2021/06/03 07:10:11;;;;;;;;;19.50;18.75;;;;;26.29;55.29;101610.88;4973657;28;45918;-83
2021/06/03 07:12:37;;;;;;;;;20.25;19.00;;;;;26.10;55.03;101613.63;4972724;28;45407;-82
2021/06/03 07:15:05;;;;;;;;;27.75;22.75;;;;;25.93;55.33;101623.31;4972202;28;45671;-82
2021/06/03 07:17:31;;;;;;;;;26.00;22.00;;;;;25.87;56.16;101613.13;4973331;28;48450;-84
2021/06/03 07:19:56;;;;;;;;;25.75;22.50;;;;;26.07;56.16;101622.03;4967760;28;45305;-82
2021/06/03 07:22:22;;;;;;;;;24.75;21.25;;;;;26.44;55.63;101612.16;4974597;28;46231;-82
2021/06/03 07:24:47;;;;;;;;;21.75;20.00;;;;;26.97;55.28;101630.31;4973219;28;45293;-81
2021/06/03 07:27:13;;;;;;;;;24.75;19.75;;;;;27.40;54.07;101614.44;4973645;28;45487;-85
2021/06/03 07:29:39;;;;;;;;;23.75;21.00;;;;;28.36;52.81;101631.63;4973886;28;45520;-82
2021/06/03 07:32:06;;;;;;;;;21.00;18.75;;;;;29.13;51.62;101624.38;4967893;28;46068;-81
2021/06/03 07:34:31;;;;;;;;;21.75;19.00;;;;;30.17;49.58;101631.03;4966819;28;45423;-81
2021/06/03 07:36:56;;;;;;;;;18.00;16.00;;;;;31.16;48.29;101627.75;4966355;28;46188;-82
2021/06/03 07:39:22;;;;;;;;;22.25;19.75;;;;;31.73;46.56;101621.09;4970626;28;55928;-83
2021/06/03 07:41:49;;;;;;;;;18.25;14.25;;;;;31.77;45.30;101608.81;4971463;28;45491;-83
2021/06/03 07:44:15;;;;;;;;;17.00;14.25;;;;;31.90;45.14;101625.41;4971026;28;45551;-83
2021/06/03 07:46:41;;;;;;;;;14.50;13.00;;;;;31.89;44.13;101640.00;4967024;28;46293;-83
2021/06/03 07:49:07;;;;;;;;;17.50;15.00;;;;;31.72;44.40;101639.28;4972966;28;45807;-81
2021/06/03 07:51:33;;;;;;;;;15.75;14.25;;;;;31.26;44.69;101641.16;4970601;28;45495;-79
2021/06/03 07:53:58;;;;;;;;;14.50;14.50;;;;;30.82;44.74;101633.56;4974339;28;45306;-82
2021/06/03 07:56:23;;;;;;;;;23.75;18.25;;;;;30.62;44.93;101646.66;4970710;28;47534;-82
2021/06/03 07:58:49;;;;;;;;;16.25;14.00;;;;;30.57;45.44;101651.78;4982855;28;45724;-82
2021/06/03 08:01:14;;;;;;;;;14.25;14.25;;;;;30.57;44.79;101647.19;4971558;28;45503;-81
2021/06/03 08:03:41;;;;;;;;;18.25;15.50;;;;;30.22;45.03;101604.25;4975958;28;45476;-82
2021/06/03 08:06:07;;;;;;;;;18.00;15.00;;;;;30.28;44.90;101653.22;4972615;28;46467;-81
2021/06/03 08:08:36;;;;;;;;;18.75;17.00;;;;;30.13;45.55;101654.94;4976715;28;45528;-80
2021/06/03 08:11:02;;;;;;;;;18.25;18.25;;;;;30.08;45.39;101668.13;4972523;28;45472;-85
2021/06/03 08:13:27;;;;;;;;;25.25;22.00;;;;;29.95;45.59;101651.53;4971851;28;45459;-81
2021/06/03 08:15:52;;;;;;;;;22.25;17.75;;;;;29.82;45.47;101666.44;4971178;28;46116;-80
2021/06/03 08:18:18;;;;;;;;;23.00;20.00;;;;;29.72;45.40;101664.91;4974976;28;45531;-80
2021/06/03 08:20:48;;;;;;;;;20.50;20.50;;;;;29.73;45.57;101666.63;4970608;28;45467;-79
2021/06/03 08:23:15;;;;;;;;;19.25;17.50;;;;;29.81;45.57;101658.47;4977160;28;45361;-80
2021/06/03 08:25:41;;;;;;;;;20.50;18.00;;;;;29.89;45.59;101656.59;4975512;28;46361;-82
2021/06/03 08:28:07;;;;;;;;;21.50;18.25;;;;;29.97;44.07;101666.63;4977623;28;45687;-83
2021/06/03 08:30:34;;;;;;;;;19.25;17.50;;;;;30.01;44.66;101669.81;4977495;28;45295;-81
2021/06/03 08:32:59;;;;;;;;;18.75;16.50;;;;;30.15;44.66;101671.88;4976787;28;45526;-82
2021/06/03 08:35:25;;;;;;;;;19.00;15.25;;;;;30.32;44.92;101672.69;4976388;28;45264;-81
2021/06/03 08:37:55;;;;;;;;;22.00;16.50;;;;;30.41;44.03;101664.38;4967629;28;45597;-78
2021/06/03 08:40:24;;;;;;;;;17.00;15.75;;;;;30.55;44.15;101668.22;4976549;28;45612;-81
2021/06/03 08:42:51;;;;;;;;;16.25;15.00;;;;;30.68;43.04;101670.38;4971852;28;45546;-81
2021/06/03 08:45:18;;;;;;;;;17.00;16.00;;;;;30.87;43.20;101672.72;4971409;28;45575;-82
2021/06/03 08:47:43;;;;;;;;;18.75;14.00;;;;;31.10;43.05;101659.19;4975015;28;45831;-82
2021/06/03 08:50:09;;;;;;;;;19.00;16.25;;;;;31.69;42.64;101666.84;4975282;28;46849;-82
2021/06/03 08:52:35;;;;;;;;;16.50;15.00;;;;;32.37;41.77;101665.06;4968782;28;45751;-84
2021/06/03 08:55:04;;;;;;;;;18.50;14.50;;;;;33.15;40.62;101650.84;4971096;28;45499;-84
2021/06/03 08:57:30;;;;;;;;;14.00;13.75;;;;;33.69;38.64;101657.69;4970990;28;46040;-86
2021/06/03 08:59:55;;;;;;;;;19.25;14.75;;;;;34.49;38.73;101664.63;4983711;28;45633;-84
2021/06/03 09:02:20;;;;;;;;;17.75;17.50;;;;;36.14;37.39;101656.06;4972182;28;45755;-84
2021/06/03 09:04:46;;;;;;;;;17.50;15.75;;;;;37.21;35.59;101673.00;4976340;28;46074;-82
2021/06/03 09:07:34;;;;;;;;;17.25;16.00;;;;;38.63;35.38;101676.91;4976057;28;45285;-83
2021/06/03 09:10:48;;;;;;;;;15.25;14.25;;;;;41.34;32.08;101676.13;4974602;28;46486;-77
2021/06/03 09:13:23;;;;;;;;;13.75;12.75;;;;;43.50;29.48;101669.53;4963312;28;45460;-81
2021/06/03 09:16:12;;;;;;;;;15.75;13.25;;;;;44.95;27.72;101679.31;4973843;28;46060;-81
2021/06/03 09:18:41;;;;;;;;;17.25;13.00;;;;;46.20;25.66;101689.09;4968004;28;45726;-82
2021/06/03 09:21:20;;;;;;;;;12.00;12.00;;;;;47.17;24.11;101682.28;4968510;28;45501;-83
2021/06/03 09:23:56;;;;;;;;;17.50;15.00;;;;;47.97;23.90;101693.06;4973718;28;45502;-81
2021/06/03 09:26:23;;;;;;;;;14.50;13.75;;;;;46.93;23.08;101682.16;4989612;28;46061;-78
2021/06/03 09:28:50;;;;;;;;;12.75;12.75;;;;;46.00;23.77;101683.59;4976622;28;45530;-80
2021/06/03 09:31:28;;;;;;;;;13.00;12.25;;;;;45.19;23.28;101679.63;4974343;28;45414;-81
2021/06/03 09:34:11;;;;;;;;;17.25;16.00;;;;;43.98;23.38;101675.19;4972371;28;45471;-83
2021/06/03 09:36:58;;;;;;;;;14.75;13.00;;;;;44.24;24.15;101676.22;4971829;28;48150;-82
2021/06/03 09:39:34;;;;;;;;;16.50;13.50;;;;;45.35;23.35;101682.44;4987318;28;45500;-82
2021/06/03 09:42:05;;;;;;;;;14.25;13.75;;;;;46.29;22.20;101673.50;4972470;28;45396;-82
2021/06/03 09:44:55;;;;;;;;;12.25;10.75;;;;;47.95;22.11;101678.59;4973212;28;45672;-79
2021/06/03 09:47:24;;;;;;;;;14.50;12.25;;;;;50.52;20.43;101686.41;4972043;28;45574;-81
2021/06/03 09:49:53;;;;;;;;;13.00;11.75;;;;;52.72;18.60;101688.00;4974757;28;47150;-82
2021/06/03 09:52:22;;;;;;;;;11.25;11.25;;;;;53.60;17.83;101681.22;4969639;28;46971;-84
2021/06/03 09:54:59;;;;;;;;;13.75;12.00;;;;;51.30;18.24;101685.19;4970277;28;45503;-83
2021/06/03 09:57:30;;;;;;;;;14.25;13.00;;;;;49.22;19.27;101681.75;4966976;28;45388;-83
2021/06/03 10:00:01;;;;;;;;;11.50;10.25;;;;;49.29;19.60;101685.84;4970444;28;45569;-83
2021/06/03 10:02:31;;;;;;;;;14.00;13.00;;;;;49.65;19.00;101682.44;4959993;28;45471;-77
2021/06/03 10:04:57;;;;;;;;;15.00;13.00;;;;;50.21;19.07;101683.41;4967547;28;45471;-77
2021/06/03 10:07:24;;;;;;;;;12.50;12.00;;;;;50.22;18.54;101676.66;4973447;28;45460;-82
2021/06/03 10:10:04;;;;;;;;;12.75;11.75;;;;;49.34;18.86;101685.75;4975117;28;45636;-79
2021/06/03 10:12:36;;;;;;;;;9.75;9.50;;;;;49.00;19.03;101682.34;4975030;28;45489;-75
2021/06/03 10:15:01;;;;;;;;;11.00;11.00;;;;;49.26;18.63;101672.47;4973437;28;45642;-85
2021/06/03 10:17:51;;;;;;;;;28.75;27.25;;;;;49.66;18.09;101680.50;4967388;28;45470;-79
2021/06/03 10:20:19;;;;;;;;;10.75;10.75;;;;;49.73;17.84;101676.16;4966556;28;45957;-83
2021/06/03 10:22:47;;;;;;;;;11.50;10.25;;;;;50.67;17.43;101674.88;4972327;28;45643;-80
2021/06/03 10:25:14;;;;;;;;;10.25;7.00;;;;;50.56;16.69;101667.84;4963784;28;45754;-80
2021/06/03 10:27:55;;;;;;;;;14.75;12.75;;;;;50.63;17.77;101669.06;4971333;28;46114;-81
2021/06/03 10:30:36;;;;;;;;;11.50;10.00;;;;;49.98;17.56;101660.06;4975078;28;45440;-81
2021/06/03 10:33:14;;;;;;;;;11.00;10.75;;;;;48.11;18.22;101655.03;4986662;28;45587;-82
2021/06/03 10:35:41;;;;;;;;;11.50;10.75;;;;;45.82;19.21;101667.50;4959207;28;45378;-79
2021/06/03 10:38:09;;;;;;;;;15.25;12.75;;;;;43.97;20.37;101665.22;4972636;28;48303;-82
2021/06/03 10:40:37;;;;;;;;;12.00;9.50;;;;;42.49;21.27;101670.00;4976534;28;45779;-90
2021/06/03 10:43:05;;;;;;;;;10.50;10.25;;;;;41.16;22.41;101669.75;5005352;28;45566;-88
2021/06/03 10:45:32;;;;;;;;;10.25;10.25;;;;;40.44;23.14;101666.56;4973666;28;45480;-83
2021/06/03 10:47:58;;;;;;;;;14.50;12.00;;;;;40.07;23.82;101672.34;4978148;28;47560;-88
2021/06/03 10:50:29;;;;;;;;;8.50;8.25;;;;;39.64;24.29;101678.16;4974152;28;45420;-88
2021/06/03 10:52:56;;;;;;;;;12.00;11.75;;;;;39.45;24.20;101668.25;4998288;28;45277;-88
2021/06/03 10:55:34;;;;;;;;;11.25;8.50;;;;;39.19;24.63;101672.25;4977078;28;45488;-88
2021/06/03 10:58:02;;;;;;;;;12.25;10.00;;;;;39.04;24.41;101667.13;4977509;28;45931;-86
2021/06/03 11:00:56;;;;;;;;;10.50;7.50;;;;;38.46;24.61;101673.94;4980045;28;45282;-88
2021/06/03 11:03:26;;;;;;;;;8.75;8.00;;;;;37.78;25.76;101662.94;4981494;28;45285;-86
2021/06/03 11:06:06;;;;;;;;;9.00;8.75;;;;;37.26;25.92;101664.97;4974623;28;45494;-83
2021/06/03 11:08:35;;;;;;;;;14.75;12.75;;;;;36.93;26.91;101666.00;4974854;28;46018;-81
2021/06/03 11:11:10;;;;;;;;;15.25;13.00;;;;;36.87;27.06;101664.09;4982126;28;45767;-84
2021/06/03 11:13:37;;;;;;;;;16.00;13.50;;;;;36.83;27.61;101652.72;4969315;28;45680;-83
2021/06/03 11:16:03;;;;;;;;;13.25;12.25;;;;;36.94;27.33;101667.66;4974803;28;45590;-82